Time;durP1;ratioP1;P1;durP2;ratioP2;P2;SDS_P1;SDS_P2;PMS_P1;PMS_P2;Temp;Humidity;BMP_temperature;BMP_pressure;BME280_temperature;BME280_humidity;BME280_pressure;Samples;Min_cycle;Max_cycle;Signal;HPM_P1;HPM_P2
2023/02/23 00:01:39;;;;;;;57.67;32.58;;;10.00;99.90;;;;;;5062487;28;20194;-75
2023/02/23 00:04:08;;;;;;;51.53;32.35;;;9.90;99.90;;;;;;5087364;28;20234;-74
2023/02/23 00:06:36;;;;;;;49.22;31.27;;;9.90;99.90;;;;;;5088398;28;20256;-75
2023/02/23 00:09:11;;;;;;;49.78;33.03;;;9.90;99.90;;;;;;5082610;28;20297;-75
2023/02/23 00:11:39;;;;;;;51.28;32.75;;;9.80;99.90;;;;;;5100341;28;20229;-75
2023/02/23 00:14:07;;;;;;;58.08;34.15;;;9.80;99.90;;;;;;5082428;28;20235;-75
2023/02/23 00:16:36;;;;;;;56.88;35.75;;;9.80;99.90;;;;;;5091252;28;20226;-74
2023/02/23 00:19:06;;;;;;;52.50;36.50;;;9.80;99.90;;;;;;5086506;28;20202;-75
2023/02/23 00:21:34;;;;;;;56.97;36.95;;;9.80;99.90;;;;;;5090251;28;20194;-74
2023/02/23 00:24:02;;;;;;;62.08;36.78;;;9.70;99.90;;;;;;5089550;28;20199;-75
2023/02/23 00:26:33;;;;;;;59.88;37.80;;;9.70;99.90;;;;;;5092293;28;20226;-74
2023/02/23 00:29:05;;;;;;;56.55;37.55;;;9.70;99.90;;;;;;5100684;28;20198;-74
2023/02/23 00:31:32;;;;;;;61.35;37.72;;;9.70;99.90;;;;;;5103769;28;20256;-73
2023/02/23 00:34:04;;;;;;;57.08;35.60;;;9.70;99.90;;;;;;5082287;28;20661;-74
2023/02/23 00:36:33;;;;;;;54.75;35.25;;;9.80;99.90;;;;;;5091216;28;20235;-75
2023/02/23 00:39:20;;;;;;;51.85;34.45;;;9.80;99.90;;;;;;5078717;28;20622;-74
2023/02/23 00:41:47;;;;;;;54.05;34.08;;;9.80;99.90;;;;;;5084947;28;20205;-75
2023/02/23 00:44:16;;;;;;;55.08;37.08;;;9.90;99.90;;;;;;5074421;28;20231;-74
2023/02/23 00:46:47;;;;;;;51.78;33.15;;;9.90;99.90;;;;;;5089070;28;20236;-73
2023/02/23 00:49:15;;;;;;;54.45;36.25;;;9.90;99.90;;;;;;5093274;28;20201;-74
2023/02/23 00:51:42;;;;;;;62.22;37.47;;;9.90;99.90;;;;;;5089925;28;20625;-74
2023/02/23 00:54:12;;;;;;;59.00;39.35;;;9.80;99.90;;;;;;5086439;28;20283;-75
2023/02/23 00:56:40;;;;;;;55.88;36.65;;;9.80;99.90;;;;;;5086111;28;20233;-74
2023/02/23 00:59:07;;;;;;;58.35;37.25;;;9.80;99.90;;;;;;5078220;28;20210;-75
2023/02/23 01:01:36;;;;;;;57.65;36.63;;;9.80;99.90;;;;;;5082749;28;20728;-75
2023/02/23 01:04:03;;;;;;;61.50;36.95;;;9.70;99.90;;;;;;5081472;28;20235;-75
2023/02/23 01:06:30;;;;;;;53.72;35.90;;;9.70;99.90;;;;;;5077562;28;20214;-74
2023/02/23 01:08:57;;;;;;;60.03;38.35;;;9.70;99.90;;;;;;5080001;28;20300;-73
2023/02/23 01:11:27;;;;;;;64.35;40.10;;;9.60;99.90;;;;;;5088703;28;20195;-74
2023/02/23 01:13:56;;;;;;;61.92;39.88;;;9.50;99.90;;;;;;5078650;28;20203;-75
2023/02/23 01:16:26;;;;;;;58.50;38.15;;;9.60;99.90;;;;;;5091093;28;20312;-76
2023/02/23 01:18:56;;;;;;;60.63;38.08;;;9.40;99.90;;;;;;5080576;28;20552;-75
2023/02/23 01:21:27;;;;;;;65.82;39.78;;;9.40;99.90;;;;;;5081659;28;20208;-74
2023/02/23 01:23:54;;;;;;;58.88;38.67;;;9.40;99.90;;;;;;5084796;28;20388;-74
2023/02/23 01:26:23;;;;;;;58.60;39.58;;;9.40;99.90;;;;;;5088638;28;20310;-73
2023/02/23 01:28:51;;;;;;;60.75;37.38;;;9.40;99.90;;;;;;5079782;28;20683;-75
2023/02/23 01:31:19;;;;;;;64.60;38.90;;;9.40;99.90;;;;;;5076327;28;20633;-74
2023/02/23 01:33:46;;;;;;;60.80;39.88;;;9.40;99.90;;;;;;5081148;28;20294;-74
2023/02/23 01:36:14;;;;;;;57.80;36.20;;;9.40;99.90;;;;;;5092523;28;20226;-74
2023/02/23 01:38:41;;;;;;;60.10;38.08;;;9.30;99.90;;;;;;5083160;28;20223;-74
2023/02/23 01:41:08;;;;;;;60.85;38.58;;;9.30;99.90;;;;;;5089055;28;20202;-75
2023/02/23 01:43:36;;;;;;;57.47;39.47;;;9.30;99.90;;;;;;5086360;28;20207;-74
2023/02/23 01:46:04;;;;;;;66.32;38.88;;;9.20;99.90;;;;;;5089984;28;20226;-75
2023/02/23 01:48:35;;;;;;;68.60;40.38;;;9.20;99.90;;;;;;5089764;28;20203;-74
2023/02/23 01:51:07;;;;;;;65.07;37.67;;;9.20;99.90;;;;;;5087233;28;20678;-73
2023/02/23 01:53:40;;;;;;;55.58;37.78;;;9.10;99.90;;;;;;5083100;28;20305;-75
2023/02/23 01:56:11;;;;;;;63.20;38.28;;;9.20;99.90;;;;;;5095939;28;20276;-74
2023/02/23 01:58:39;;;;;;;61.63;37.55;;;9.20;99.90;;;;;;5080440;28;20332;-75
2023/02/23 02:01:07;;;;;;;63.60;39.90;;;9.20;99.90;;;;;;5087868;28;20244;-73
2023/02/23 02:03:38;;;;;;;60.28;39.03;;;9.30;99.90;;;;;;5090167;28;20273;-74
2023/02/23 02:06:08;;;;;;;60.10;34.55;;;9.20;99.90;;;;;;5084876;28;20237;-75
2023/02/23 02:08:43;;;;;;;54.80;38.10;;;9.10;99.90;;;;;;5082061;28;20198;-73
2023/02/23 02:11:24;;;;;;;61.38;36.55;;;9.10;99.90;;;;;;5059765;28;20213;-75
2023/02/23 02:13:53;;;;;;;59.08;35.85;;;9.20;99.90;;;;;;5081943;28;20214;-74
2023/02/23 02:17:03;;;;;;;67.82;36.40;;;9.20;99.90;;;;;;5088264;28;20331;-76
2023/02/23 02:19:56;;;;;;;66.68;38.95;;;9.20;99.90;;;;;;5085239;28;20563;-75
2023/02/23 02:22:43;;;;;;;54.20;35.75;;;9.10;99.90;;;;;;5090349;28;20709;-74
2023/02/23 02:25:31;;;;;;;67.88;38.58;;;9.30;99.90;;;;;;5074458;28;20199;-75
2023/02/23 02:28:32;;;;;;;55.70;36.65;;;9.20;99.90;;;;;;5071313;28;20214;-76
2023/02/23 02:31:36;;;;;;;57.72;34.88;;;9.20;99.90;;;;;;5078134;28;20202;-73
2023/02/23 02:34:54;;;;;;;64.60;35.58;;;9.30;99.90;;;;;;5087492;28;20206;-75
2023/02/23 02:37:55;;;;;;;60.28;33.42;;;9.30;99.90;;;;;;5031673;28;20224;-74
2023/02/23 02:40:27;;;;;;;60.50;36.40;;;9.30;99.90;;;;;;5021205;28;20197;-73
2023/02/23 02:43:10;;;;;;;59.45;38.15;;;9.30;99.90;;;;;;5060150;28;20218;-74
2023/02/23 02:45:45;;;;;;;64.63;37.45;;;9.30;99.90;;;;;;5085803;28;20198;-75
2023/02/23 02:48:20;;;;;;;61.70;33.88;;;9.30;99.90;;;;;;5069072;28;20221;-74
2023/02/23 02:50:54;;;;;;;61.15;36.10;;;9.30;99.90;;;;;;5090600;28;20190;-73
2023/02/23 02:53:28;;;;;;;69.50;35.72;;;9.30;99.90;;;;;;5076390;28;20228;-74
2023/02/23 02:55:59;;;;;;;58.00;33.72;;;9.30;99.90;;;;;;5068631;28;20216;-75
2023/02/23 02:58:27;;;;;;;66.60;34.95;;;9.30;99.90;;;;;;5087760;28;20217;-74
2023/02/23 04:19:51;;;;;;;61.30;38.28;;;9.30;99.90;;;;;;5083178;28;20258;-74
2023/02/23 04:22:18;;;;;;;81.60;39.83;;;9.20;99.90;;;;;;5091358;28;20198;-75
2023/02/23 04:24:45;;;;;;;80.68;42.65;;;9.20;99.90;;;;;;5074188;28;20281;-74
2023/02/23 04:27:13;;;;;;;79.68;41.72;;;9.20;99.90;;;;;;5087401;28;20683;-75
2023/02/23 04:29:41;;;;;;;80.45;42.15;;;9.20;99.90;;;;;;5076411;28;20286;-75
2023/02/23 04:32:12;;;;;;;64.47;36.25;;;9.30;99.90;;;;;;5078097;28;20626;-75
2023/02/23 04:34:41;;;;;;;72.15;39.15;;;9.20;99.90;;;;;;5088903;28;20294;-74
2023/02/23 04:37:09;;;;;;;81.05;39.45;;;9.20;99.90;;;;;;5088146;28;20311;-76
2023/02/23 04:39:35;;;;;;;80.47;39.95;;;9.20;99.90;;;;;;5077082;28;20191;-75
2023/02/23 04:42:03;;;;;;;78.32;37.55;;;9.10;99.90;;;;;;5076337;28;20238;-74
2023/02/23 04:44:30;;;;;;;77.65;38.10;;;9.10;99.90;;;;;;5076944;28;20206;-75
2023/02/23 04:46:58;;;;;;;77.90;41.67;;;9.10;99.90;;;;;;5079781;28;20626;-75
2023/02/23 04:49:26;;;;;;;73.53;38.75;;;9.20;99.90;;;;;;5087240;28;20202;-74
2023/02/23 04:51:54;;;;;;;87.10;42.65;;;9.20;99.90;;;;;;5086893;28;20203;-75
2023/02/23 04:54:21;;;;;;;87.50;43.00;;;9.10;99.90;;;;;;5076935;28;20259;-75
2023/02/23 04:56:48;;;;;;;80.80;43.65;;;9.10;99.90;;;;;;5082957;28;20226;-75
2023/02/23 04:59:15;;;;;;;67.15;38.30;;;9.20;99.90;;;;;;5081295;28;20261;-74
2023/02/23 05:01:42;;;;;;;81.00;38.70;;;9.10;99.90;;;;;;5089364;28;20734;-75
2023/02/23 05:04:10;;;;;;;86.13;41.13;;;9.10;99.90;;;;;;5077967;28;20272;-75
2023/02/23 05:06:37;;;;;;;79.68;39.97;;;9.10;99.90;;;;;;5083696;28;20225;-74
2023/02/23 05:09:06;;;;;;;84.88;42.25;;;9.10;99.90;;;;;;5084730;28;20199;-76
2023/02/23 05:11:33;;;;;;;69.85;40.63;;;9.00;99.90;;;;;;5088270;28;20202;-74
2023/02/23 05:14:01;;;;;;;72.68;37.45;;;9.10;99.90;;;;;;5088884;28;20515;-75
2023/02/23 05:16:28;;;;;;;78.45;39.00;;;9.20;99.90;;;;;;5086324;28;20221;-74
2023/02/23 05:18:55;;;;;;;75.95;40.72;;;9.20;99.90;;;;;;5075975;28;20199;-77
2023/02/23 05:21:22;;;;;;;89.15;41.65;;;9.20;99.90;;;;;;5083861;28;20251;-75
2023/02/23 05:23:49;;;;;;;87.00;37.95;;;9.10;99.90;;;;;;5083692;28;20553;-75
2023/02/23 05:26:18;;;;;;;71.70;39.58;;;9.10;99.90;;;;;;5085177;28;20310;-75
2023/02/23 05:28:45;;;;;;;78.38;38.63;;;9.10;99.90;;;;;;5092928;28;20202;-75
2023/02/23 05:31:12;;;;;;;91.28;44.30;;;9.10;99.90;;;;;;5084484;28;20282;-75
2023/02/23 05:33:41;;;;;;;89.57;42.97;;;9.00;99.90;;;;;;5086974;28;20355;-76
2023/02/23 05:36:10;;;;;;;77.07;40.05;;;9.00;99.90;;;;;;5093082;28;20232;-75
2023/02/23 05:38:43;;;;;;;97.47;42.78;;;9.00;99.90;;;;;;5098002;28;20237;-74
2023/02/23 05:41:11;;;;;;;85.65;40.05;;;8.90;99.90;;;;;;5104175;28;20226;-76
2023/02/23 05:43:40;;;;;;;85.78;40.03;;;8.90;99.90;;;;;;5102731;28;20202;-74
2023/02/23 05:46:08;;;;;;;88.00;42.03;;;8.90;99.90;;;;;;5114892;28;20222;-75
2023/02/23 05:48:36;;;;;;;86.95;39.80;;;8.90;99.90;;;;;;5103556;28;20203;-75
2023/02/23 05:51:04;;;;;;;88.78;41.40;;;8.90;99.90;;;;;;5111631;28;20198;-74
2023/02/23 05:53:34;;;;;;;92.07;42.85;;;8.90;99.90;;;;;;5112719;28;20210;-75
2023/02/23 05:56:01;;;;;;;80.20;41.30;;;8.90;99.90;;;;;;5106210;28;20237;-74
2023/02/23 05:58:29;;;;;;;90.25;41.03;;;8.90;99.90;;;;;;5083157;28;20237;-76
2023/02/23 06:00:57;;;;;;;93.57;40.92;;;8.90;99.90;;;;;;5086958;28;20215;-74
2023/02/23 06:03:24;;;;;;;92.53;43.45;;;8.90;99.90;;;;;;5078534;28;20705;-75
2023/02/23 06:05:52;;;;;;;94.13;44.72;;;8.90;99.90;;;;;;5086170;28;20648;-74
2023/02/23 06:08:19;;;;;;;88.63;39.88;;;8.90;99.90;;;;;;5079883;28;20217;-75
2023/02/23 06:10:47;;;;;;;88.97;41.38;;;8.90;99.90;;;;;;5076400;28;20691;-75
2023/02/23 06:13:15;;;;;;;77.70;40.38;;;8.80;99.90;;;;;;5097527;28;20226;-76
2023/02/23 06:15:43;;;;;;;94.45;42.70;;;8.90;99.90;;;;;;5088886;28;20249;-76
2023/02/23 06:18:11;;;;;;;112.88;46.83;;;8.90;99.90;;;;;;5085191;28;20235;-75
2023/02/23 06:20:39;;;;;;;94.80;40.55;;;8.90;99.90;;;;;;5087284;28;20202;-74
2023/02/23 06:23:06;;;;;;;94.90;43.10;;;8.90;99.90;;;;;;5095474;28;20198;-75
2023/02/23 06:25:33;;;;;;;84.95;40.75;;;8.90;99.90;;;;;;5082103;28;20198;-75
2023/02/23 06:28:00;;;;;;;93.38;44.88;;;8.90;99.90;;;;;;5085197;28;20724;-76
2023/02/23 06:30:27;;;;;;;87.18;43.58;;;9.00;99.90;;;;;;5091361;28;20224;-75
2023/02/23 06:32:55;;;;;;;76.45;43.83;;;9.00;99.90;;;;;;5095511;28;20260;-76
2023/02/23 06:35:26;;;;;;;96.85;45.58;;;9.00;99.90;;;;;;5095002;28;20217;-75
2023/02/23 06:37:53;;;;;;;91.80;39.65;;;9.00;99.90;;;;;;5094892;28;20660;-74
2023/02/23 06:40:21;;;;;;;94.50;45.65;;;8.90;99.90;;;;;;5086137;28;20226;-76
2023/02/23 06:42:48;;;;;;;92.97;47.85;;;8.90;99.90;;;;;;5090780;28;20248;-74
2023/02/23 06:45:16;;;;;;;86.00;40.15;;;9.00;99.90;;;;;;5093152;28;20297;-74
2023/02/23 06:47:43;;;;;;;105.53;42.30;;;8.90;99.90;;;;;;5067349;28;20229;-75
2023/02/23 06:50:12;;;;;;;94.47;42.92;;;8.90;99.90;;;;;;5090311;28;20202;-76
2023/02/23 06:52:41;;;;;;;102.60;46.08;;;8.90;99.90;;;;;;5089389;28;20264;-75
2023/02/23 06:55:11;;;;;;;100.13;45.63;;;8.90;99.90;;;;;;5088595;28;20213;-76
2023/02/23 06:57:40;;;;;;;109.43;46.85;;;8.90;99.90;;;;;;5092306;28;20320;-76
2023/02/23 07:00:09;;;;;;;90.63;42.55;;;8.90;99.90;;;;;;5095287;28;20569;-75
2023/02/23 07:02:36;;;;;;;100.90;43.33;;;8.90;99.90;;;;;;5082716;28;20207;-75
2023/02/23 07:05:04;;;;;;;97.38;41.45;;;8.90;99.90;;;;;;5089045;28;20214;-75
2023/02/23 07:07:31;;;;;;;103.78;42.63;;;9.00;99.90;;;;;;5088631;28;20221;-75
2023/02/23 07:10:00;;;;;;;103.53;46.60;;;9.00;99.90;;;;;;5087141;28;20568;-73
2023/02/23 07:12:27;;;;;;;93.75;44.50;;;9.00;99.90;;;;;;5091917;28;20194;-74
2023/02/23 07:14:54;;;;;;;89.05;43.80;;;9.00;99.90;;;;;;5092561;28;20222;-72
2023/02/23 07:17:21;;;;;;;90.50;45.03;;;9.00;99.90;;;;;;5080127;28;20320;-74
2023/02/23 07:19:49;;;;;;;110.80;46.58;;;9.10;99.90;;;;;;5077656;28;20203;-73
2023/02/23 07:22:16;;;;;;;103.07;43.78;;;9.10;99.90;;;;;;5088773;28;20282;-76
2023/02/23 07:24:43;;;;;;;86.13;40.70;;;9.10;99.90;;;;;;5090386;28;20198;-73
2023/02/23 07:27:12;;;;;;;106.38;44.88;;;9.10;99.90;;;;;;5081881;28;20257;-73
2023/02/23 07:29:39;;;;;;;111.70;44.40;;;9.10;99.90;;;;;;5088473;28;20225;-73
2023/02/23 07:32:06;;;;;;;93.07;42.10;;;9.20;99.90;;;;;;5085424;28;20247;-74
2023/02/23 07:34:35;;;;;;;109.80;46.90;;;9.20;99.90;;;;;;5094017;28;20316;-73
2023/02/23 07:37:03;;;;;;;106.68;44.72;;;9.20;99.90;;;;;;5090253;28;20236;-74
2023/02/23 07:39:30;;;;;;;104.32;44.55;;;9.20;99.90;;;;;;5091953;28;20656;-76
2023/02/23 07:41:57;;;;;;;104.18;43.38;;;9.30;99.90;;;;;;5089158;28;20214;-74
2023/02/23 07:44:25;;;;;;;102.40;45.55;;;9.20;99.90;;;;;;5082548;28;20298;-73
2023/02/23 07:46:52;;;;;;;98.40;45.78;;;9.10;99.90;;;;;;5084689;28;20757;-72
2023/02/23 07:49:20;;;;;;;120.03;52.35;;;9.10;99.90;;;;;;5079573;28;20206;-73
2023/02/23 07:51:47;;;;;;;122.43;49.03;;;9.10;99.90;;;;;;5087460;28;20247;-74
2023/02/23 07:54:14;;;;;;;106.10;47.08;;;9.10;99.90;;;;;;5088277;28;20283;-73
2023/02/23 07:56:42;;;;;;;125.45;49.83;;;9.20;99.90;;;;;;5079222;28;20280;-74
2023/02/23 07:59:09;;;;;;;127.57;48.53;;;9.30;99.90;;;;;;5092968;28;20210;-74
2023/02/23 08:01:38;;;;;;;140.65;53.00;;;9.50;99.90;;;;;;5094927;28;20199;-73
2023/02/23 08:04:07;;;;;;;114.18;47.88;;;9.40;99.90;;;;;;5089883;28;20246;-73
2023/02/23 08:06:34;;;;;;;114.20;46.05;;;9.40;99.90;;;;;;5081469;28;20220;-73
2023/02/23 08:09:01;;;;;;;127.93;49.60;;;9.40;99.90;;;;;;5089537;28;20203;-74
2023/02/23 08:11:28;;;;;;;128.60;49.33;;;9.40;99.90;;;;;;5084801;28;20230;-73
2023/02/23 08:13:58;;;;;;;99.57;43.10;;;9.40;99.90;;;;;;5090052;28;20275;-73
2023/02/23 08:16:26;;;;;;;121.65;49.30;;;9.50;99.90;;;;;;5085117;28;20231;-74
2023/02/23 08:18:58;;;;;;;126.20;50.55;;;9.50;99.90;;;;;;5088934;28;20291;-72
2023/02/23 08:21:25;;;;;;;120.70;47.05;;;9.40;99.90;;;;;;5090144;28;20255;-75
2023/02/23 08:23:52;;;;;;;127.53;47.53;;;9.50;99.90;;;;;;5107192;28;20251;-73
2023/02/23 08:26:19;;;;;;;128.43;52.50;;;9.60;99.90;;;;;;5096476;28;20692;-75
2023/02/23 08:28:47;;;;;;;141.02;52.88;;;9.60;99.90;;;;;;5098403;28;20230;-73
2023/02/23 08:31:17;;;;;;;131.85;46.97;;;9.70;99.90;;;;;;5086082;28;20241;-75
2023/02/23 08:33:45;;;;;;;140.65;54.90;;;9.70;99.90;;;;;;5090104;28;20219;-76
2023/02/23 08:36:14;;;;;;;111.55;45.97;;;9.70;99.90;;;;;;5092444;28;20228;-74
2023/02/23 08:38:41;;;;;;;142.30;52.83;;;9.80;99.90;;;;;;5079094;28;20200;-75
2023/02/23 08:41:08;;;;;;;132.95;54.78;;;9.80;99.90;;;;;;5080984;28;20231;-75
2023/02/23 08:43:36;;;;;;;157.77;51.97;;;9.80;99.90;;;;;;5084567;28;20210;-73
2023/02/23 08:46:04;;;;;;;167.50;55.55;;;9.90;99.90;;;;;;5083166;28;20322;-74
2023/02/23 08:48:31;;;;;;;155.38;52.70;;;9.90;99.90;;;;;;5092144;28;20277;-74
2023/02/23 08:51:11;;;;;;;137.50;50.78;;;9.90;99.90;;;;;;5085629;28;20199;-74
2023/02/23 08:53:39;;;;;;;166.02;52.50;;;10.00;99.90;;;;;;5085620;28;20243;-74
2023/02/23 08:56:24;;;;;;;160.88;50.80;;;10.10;99.90;;;;;;5087477;28;20231;-74
2023/02/23 08:58:51;;;;;;;141.63;51.83;;;10.10;99.90;;;;;;5085035;28;20207;-74
2023/02/23 09:01:21;;;;;;;142.07;49.67;;;10.10;99.90;;;;;;5077630;28;20619;-74
2023/02/23 09:03:56;;;;;;;140.13;49.72;;;10.20;99.90;;;;;;5075259;28;20640;-75
2023/02/23 09:06:25;;;;;;;145.68;49.80;;;10.20;99.90;;;;;;5090219;28;20353;-74
2023/02/23 09:08:55;;;;;;;153.63;52.05;;;10.20;99.90;;;;;;5081457;28;20211;-74
2023/02/23 09:11:22;;;;;;;139.48;50.58;;;10.20;99.90;;;;;;5087601;28;20199;-76
2023/02/23 09:13:49;;;;;;;134.50;49.10;;;10.20;99.90;;;;;;5089093;28;20708;-75
2023/02/23 09:16:17;;;;;;;119.30;46.83;;;10.20;99.90;;;;;;5092232;28;20224;-75
2023/02/23 09:18:44;;;;;;;154.52;53.28;;;10.30;99.90;;;;;;5092055;28;20245;-76
2023/02/23 09:21:23;;;;;;;146.30;51.63;;;10.20;99.90;;;;;;5080655;28;20323;-74
2023/02/23 09:23:53;;;;;;;134.60;50.30;;;10.30;99.90;;;;;;5080248;28;20566;-75
2023/02/23 09:26:23;;;;;;;133.32;48.42;;;10.30;99.90;;;;;;5080173;28;20720;-74
2023/02/23 09:28:50;;;;;;;134.02;49.85;;;10.30;99.90;;;;;;5081514;28;20293;-72
2023/02/23 09:31:19;;;;;;;138.18;52.30;;;10.30;99.90;;;;;;5073200;28;20232;-75
2023/02/23 09:33:48;;;;;;;135.20;49.30;;;10.30;99.90;;;;;;5080103;28;20230;-74
2023/02/23 09:36:18;;;;;;;140.57;50.47;;;10.10;99.90;;;;;;5091779;28;20262;-77
2023/02/23 09:38:48;;;;;;;129.40;47.10;;;10.10;99.90;;;;;;5087811;28;20205;-75
2023/02/23 09:41:45;;;;;;;134.95;48.03;;;10.10;99.90;;;;;;5090185;28;20234;-74
2023/02/23 09:44:22;;;;;;;109.63;48.40;;;10.10;99.90;;;;;;5066781;28;20195;-74
2023/02/23 09:47:01;;;;;;;117.70;49.65;;;10.00;99.90;;;;;;5076655;28;20727;-74
2023/02/23 09:49:33;;;;;;;99.25;42.78;;;9.90;99.90;;;;;;5079152;28;20256;-74
2023/02/23 09:52:03;;;;;;;129.10;46.42;;;9.90;99.90;;;;;;5079587;28;20201;-74
2023/02/23 09:54:33;;;;;;;116.82;43.22;;;9.90;99.90;;;;;;5084694;28;20314;-73
2023/02/23 09:57:05;;;;;;;100.93;42.13;;;9.90;99.90;;;;;;5091928;28;20309;-73
2023/02/23 09:59:34;;;;;;;120.95;46.72;;;10.00;99.90;;;;;;5093549;28;20212;-74
2023/02/23 10:02:08;;;;;;;105.55;40.75;;;10.10;99.90;;;;;;5086956;28;20205;-72
2023/02/23 10:04:41;;;;;;;94.85;38.70;;;10.20;99.90;;;;;;5079350;28;20264;-74
2023/02/23 10:07:15;;;;;;;92.47;40.53;;;10.20;99.90;;;;;;5087677;28;20330;-73
2023/02/23 10:09:58;;;;;;;91.20;37.13;;;10.20;99.90;;;;;;5080651;28;20237;-75
2023/02/23 10:12:33;;;;;;;90.18;38.60;;;10.20;99.90;;;;;;5079275;28;20290;-74
2023/02/23 10:15:15;;;;;;;97.55;39.45;;;10.20;99.90;;;;;;5073736;28;20226;-74
2023/02/23 10:17:51;;;;;;;91.95;36.50;;;10.20;99.90;;;;;;5062457;28;20220;-75
2023/02/23 10:20:26;;;;;;;88.13;35.55;;;10.20;99.90;;;;;;5085780;28;20233;-75
2023/02/23 10:22:56;;;;;;;86.30;38.22;;;10.30;99.90;;;;;;5089206;28;20259;-75
2023/02/23 10:25:28;;;;;;;89.85;36.80;;;10.30;99.90;;;;;;5086818;28;20230;-74
2023/02/23 10:27:58;;;;;;;87.13;37.83;;;10.30;99.90;;;;;;5088640;28;20337;-75
2023/02/23 10:30:28;;;;;;;99.50;36.33;;;10.40;99.90;;;;;;5084437;28;20241;-74
2023/02/23 10:33:04;;;;;;;98.15;39.67;;;10.30;99.90;;;;;;5088130;28;20196;-72
2023/02/23 10:35:32;;;;;;;100.88;39.92;;;10.30;99.90;;;;;;5091110;28;20214;-74
2023/02/23 10:38:01;;;;;;;84.30;35.85;;;10.30;99.90;;;;;;5092772;28;20232;-74
2023/02/23 10:40:31;;;;;;;89.70;37.08;;;10.30;99.90;;;;;;5091363;28;20253;-74
2023/02/23 10:43:03;;;;;;;92.60;36.60;;;10.30;99.90;;;;;;5090087;28;20196;-73
2023/02/23 10:45:36;;;;;;;81.18;39.25;;;10.40;99.90;;;;;;5095911;28;20261;-74
2023/02/23 10:48:07;;;;;;;77.95;33.88;;;10.40;99.90;;;;;;5086985;28;20300;-75
2023/02/23 10:50:38;;;;;;;76.15;34.83;;;10.50;99.90;;;;;;5082128;28;20205;-74
2023/02/23 10:53:15;;;;;;;79.18;34.58;;;10.40;99.90;;;;;;5087352;28;20614;-75
2023/02/23 10:55:45;;;;;;;72.78;35.00;;;10.50;99.90;;;;;;5090682;28;20293;-75
2023/02/23 10:58:19;;;;;;;81.85;34.17;;;10.50;99.90;;;;;;5088231;28;20212;-74
2023/02/23 11:00:58;;;;;;;76.25;35.42;;;10.60;99.90;;;;;;5091582;28;20205;-75
2023/02/23 11:03:35;;;;;;;81.15;37.72;;;10.60;99.90;;;;;;5098690;28;20207;-75
2023/02/23 11:06:03;;;;;;;87.70;37.10;;;10.70;99.90;;;;;;5105031;28;20259;-74
2023/02/23 11:08:34;;;;;;;81.70;34.85;;;10.60;99.90;;;;;;5111875;28;20209;-75
2023/02/23 11:11:18;;;;;;;97.57;38.78;;;10.50;99.90;;;;;;5103448;28;20226;-74
2023/02/23 11:13:48;;;;;;;86.78;36.00;;;10.40;99.90;;;;;;5078824;28;20194;-74
2023/02/23 11:16:18;;;;;;;94.75;35.33;;;10.20;99.90;;;;;;5092422;28;20291;-74
2023/02/23 11:18:53;;;;;;;78.43;32.70;;;10.20;99.90;;;;;;5086931;28;20231;-75
2023/02/23 11:21:33;;;;;;;83.85;34.88;;;10.20;99.90;;;;;;5067570;28;20206;-75
2023/02/23 11:24:11;;;;;;;95.10;39.83;;;10.20;99.90;;;;;;5088719;28;20201;-74
2023/02/23 11:26:41;;;;;;;101.95;38.25;;;10.00;99.90;;;;;;5070512;28;20249;-74
2023/02/23 11:29:17;;;;;;;88.25;36.85;;;10.00;99.90;;;;;;5081282;28;20245;-74
2023/02/23 11:31:49;;;;;;;93.32;34.83;;;10.00;99.90;;;;;;5082645;28;20653;-73
2023/02/23 11:34:30;;;;;;;113.55;39.85;;;9.90;99.90;;;;;;5082559;28;20206;-75
2023/02/23 11:37:20;;;;;;;112.53;37.83;;;9.90;99.90;;;;;;5094320;28;20308;-74
2023/02/23 11:39:59;;;;;;;118.45;39.28;;;9.80;99.90;;;;;;5090120;28;20215;-74
2023/02/23 11:42:32;;;;;;;95.00;36.05;;;9.80;99.90;;;;;;5082865;28;20207;-74
2023/02/23 11:45:06;;;;;;;121.32;42.08;;;9.80;99.90;;;;;;5094685;28;20230;-73
2023/02/23 11:47:39;;;;;;;108.78;42.70;;;9.80;99.90;;;;;;5082900;28;20219;-74
2023/02/23 11:50:23;;;;;;;108.13;43.78;;;9.70;99.90;;;;;;5085687;28;20618;-72
2023/02/23 11:52:55;;;;;;;111.15;39.22;;;9.70;99.90;;;;;;5081278;28;20206;-75
2023/02/23 11:55:24;;;;;;;108.43;40.13;;;9.80;99.90;;;;;;5088156;28;20721;-75
2023/02/23 11:58:18;;;;;;;109.78;41.03;;;9.80;99.90;;;;;;5084108;28;20230;-74
2023/02/23 12:00:56;;;;;;;103.35;39.50;;;9.80;99.90;;;;;;5089521;28;20222;-73
2023/02/23 12:03:26;;;;;;;106.95;39.03;;;9.80;99.90;;;;;;5068359;28;20605;-75
2023/02/23 12:05:58;;;;;;;114.28;38.20;;;9.90;99.90;;;;;;5080794;28;20199;-74
2023/02/23 12:08:38;;;;;;;111.35;40.25;;;9.90;99.90;;;;;;5085178;28;20207;-74
2023/02/23 12:11:11;;;;;;;134.18;40.42;;;9.90;99.90;;;;;;5083151;28;20205;-74
2023/02/23 12:13:44;;;;;;;105.80;39.13;;;9.80;99.90;;;;;;5090367;28;20252;-74
2023/02/23 12:19:11;;;;;;;102.88;39.88;;;9.70;99.90;;;;;;5084992;28;20311;-73
2023/02/23 12:21:43;;;;;;;123.00;39.67;;;9.70;99.90;;;;;;5086821;28;20602;-74
2023/02/23 12:24:19;;;;;;;127.80;45.63;;;9.60;99.90;;;;;;5086175;28;20612;-74
2023/02/23 12:26:51;;;;;;;121.38;39.05;;;9.60;99.90;;;;;;5079843;28;20697;-74
2023/02/23 12:29:28;;;;;;;124.15;44.78;;;9.50;99.90;;;;;;5079037;28;20198;-73
2023/02/23 12:32:01;;;;;;;128.00;44.88;;;9.50;99.90;;;;;;5089473;28;20209;-75
2023/02/23 12:34:35;;;;;;;139.30;48.33;;;9.50;99.90;;;;;;5086037;28;20575;-74
2023/02/23 12:37:14;;;;;;;132.85;44.03;;;9.50;99.90;;;;;;5091852;28;20628;-74
2023/02/23 12:39:46;;;;;;;131.82;44.60;;;9.50;99.90;;;;;;5078900;28;20253;-75
2023/02/23 12:42:19;;;;;;;132.60;49.05;;;9.50;99.90;;;;;;5082810;28;20285;-74
2023/02/23 12:44:52;;;;;;;132.27;43.85;;;9.50;99.90;;;;;;5086191;28;20734;-73
2023/02/23 12:47:32;;;;;;;138.07;47.08;;;9.50;99.90;;;;;;5069769;28;20685;-74
2023/02/23 12:50:06;;;;;;;158.65;55.15;;;9.50;99.90;;;;;;5063485;28;20287;-74
2023/02/23 12:52:37;;;;;;;149.55;50.90;;;9.50;99.90;;;;;;5056525;28;20210;-74
2023/02/23 12:55:10;;;;;;;148.35;48.45;;;9.50;99.90;;;;;;5081604;28;20210;-73
2023/02/23 12:57:46;;;;;;;131.00;46.65;;;9.40;99.90;;;;;;5092236;28;20222;-75
2023/02/23 13:00:44;;;;;;;139.18;44.00;;;9.40;99.90;;;;;;5085428;28;20263;-75
2023/02/23 13:03:39;;;;;;;134.90;48.38;;;9.40;99.90;;;;;;5085958;28;20277;-75
2023/02/23 13:06:16;;;;;;;112.53;43.50;;;9.40;99.90;;;;;;5075256;28;20248;-73
2023/02/23 13:08:58;;;;;;;100.80;38.88;;;9.40;99.90;;;;;;5088715;28;20213;-75
2023/02/23 13:11:46;;;;;;;116.65;41.28;;;9.30;99.90;;;;;;5074392;28;20214;-74
2023/02/23 13:14:18;;;;;;;106.35;41.97;;;9.30;99.90;;;;;;5076182;28;20541;-74
2023/02/23 13:16:52;;;;;;;109.00;40.60;;;9.20;99.90;;;;;;5086042;28;20228;-74
2023/02/23 13:19:25;;;;;;;90.07;39.40;;;9.20;99.90;;;;;;5073402;28;20608;-74
2023/02/23 13:21:55;;;;;;;99.10;36.05;;;9.30;99.90;;;;;;5080477;28;20601;-74
2023/02/23 13:24:26;;;;;;;93.88;35.22;;;9.30;99.90;;;;;;5079014;28;20202;-73
2023/02/23 13:27:01;;;;;;;82.40;35.72;;;9.40;99.90;;;;;;5089856;28;20234;-74
2023/02/23 13:29:44;;;;;;;87.80;34.85;;;9.40;99.90;;;;;;5087408;28;20222;-72
2023/02/23 13:32:14;;;;;;;84.30;35.22;;;9.50;99.90;;;;;;5068122;28;20613;-73
2023/02/23 13:34:51;;;;;;;92.78;37.35;;;9.50;99.90;;;;;;5087747;28;20225;-74
2023/02/23 13:37:22;;;;;;;74.95;30.55;;;9.70;99.90;;;;;;5096434;28;20225;-74
2023/02/23 13:40:08;;;;;;;84.88;36.78;;;9.70;99.90;;;;;;5089043;28;20210;-74
2023/02/23 13:42:57;;;;;;;67.20;31.13;;;9.80;99.90;;;;;;5095772;28;20289;-72
2023/02/23 13:45:41;;;;;;;67.47;30.98;;;9.90;99.90;;;;;;5069363;28;20281;-72
2023/02/23 13:48:24;;;;;;;81.55;32.38;;;10.00;99.90;;;;;;5077035;28;20229;-73
2023/02/23 13:50:59;;;;;;;74.03;32.30;;;10.00;99.90;;;;;;5069171;28;20289;-73
2023/02/23 13:53:38;;;;;;;75.25;30.25;;;10.00;99.90;;;;;;5095675;28;20244;-73
2023/02/23 13:56:08;;;;;;;83.90;30.33;;;10.10;99.90;;;;;;5077496;28;20294;-74
2023/02/23 13:58:36;;;;;;;75.53;31.67;;;10.10;99.90;;;;;;5095804;28;20236;-73
2023/02/23 14:01:09;;;;;;;76.90;33.15;;;10.10;99.90;;;;;;5094542;28;20212;-73
2023/02/23 14:03:46;;;;;;;65.75;31.10;;;10.10;99.90;;;;;;5093015;28;20589;-74
2023/02/23 14:06:19;;;;;;;63.00;30.92;;;10.20;99.90;;;;;;5091383;28;20585;-73
2023/02/23 14:08:53;;;;;;;74.10;32.78;;;10.40;99.90;;;;;;5087447;28;20311;-74
2023/02/23 14:11:43;;;;;;;61.17;29.50;;;10.40;99.90;;;;;;5089502;28;20664;-74
2023/02/23 14:14:36;;;;;;;66.88;30.67;;;10.40;99.90;;;;;;5078983;28;20211;-74
2023/02/23 14:17:49;;;;;;;77.45;33.47;;;10.30;99.90;;;;;;5085580;28;20230;-73